createdAt,value
2023-02-18T00:01:16.868Z,99.90
2023-02-18T00:03:44.059Z,99.90
2023-02-18T00:06:22.273Z,99.90
2023-02-18T00:08:49.977Z,99.90
2023-02-18T00:11:17.944Z,99.90
2023-02-18T00:13:50.674Z,99.90
2023-02-18T00:16:17.516Z,99.90
2023-02-18T00:18:44.565Z,99.90
2023-02-18T00:21:11.562Z,99.90
2023-02-18T00:23:38.529Z,99.90
2023-02-18T00:26:09.127Z,99.90
2023-02-18T00:28:36.615Z,99.90
2023-02-18T00:31:12.396Z,99.90
2023-02-18T00:33:40.080Z,99.90
2023-02-18T00:36:10.649Z,99.90
2023-02-18T00:38:37.610Z,99.90
2023-02-18T00:41:04.998Z,99.90
2023-02-18T00:43:31.935Z,99.90
2023-02-18T00:45:58.917Z,99.90
2023-02-18T00:48:25.821Z,99.90
2023-02-18T00:50:52.693Z,99.90
2023-02-18T00:53:19.681Z,99.90
2023-02-18T00:55:49.733Z,99.90
2023-02-18T00:58:16.764Z,99.90
2023-02-18T01:00:43.990Z,99.90
2023-02-18T01:03:11.769Z,99.90
2023-02-18T01:05:39.509Z,99.90
2023-02-18T01:08:08.370Z,99.90
2023-02-18T01:10:36.572Z,99.90
2023-02-18T01:13:06.328Z,99.90
2023-02-18T01:15:33.230Z,99.90
2023-02-18T01:18:00.138Z,99.90
2023-02-18T01:20:27.166Z,99.90
2023-02-18T01:22:53.989Z,99.90
2023-02-18T01:25:20.866Z,99.90
2023-02-18T01:27:47.685Z,99.90
2023-02-18T01:30:16.969Z,99.90
2023-02-18T01:32:44.473Z,99.90
2023-02-18T01:35:13.816Z,99.90
2023-02-18T01:37:40.690Z,99.90
2023-02-18T01:40:10.437Z,99.90
2023-02-18T01:42:37.316Z,99.90
2023-02-18T01:45:35.269Z,99.90
2023-02-18T01:48:08.564Z,99.90
2023-02-18T01:50:39.841Z,99.90
2023-02-18T01:53:07.438Z,99.90
2023-02-18T01:55:35.812Z,99.90
2023-02-18T01:58:03.387Z,99.90
2023-02-18T02:00:32.769Z,99.90
2023-02-18T02:02:59.874Z,99.90
2023-02-18T02:05:32.063Z,99.90
2023-02-18T02:08:00.292Z,99.90
2023-02-18T02:10:59.369Z,99.90
2023-02-18T02:14:17.423Z,99.90
2023-02-18T02:17:05.331Z,99.90
2023-02-18T02:20:33.759Z,99.90
2023-02-18T02:23:18.616Z,99.90
2023-02-18T02:25:51.411Z,99.90
2023-02-18T02:28:53.886Z,99.90
2023-02-18T02:31:20.707Z,99.90
2023-02-18T02:34:05.879Z,99.90
2023-02-18T02:36:48.017Z,99.90
2023-02-18T02:39:32.305Z,99.90
2023-02-18T02:42:18.928Z,99.90
2023-02-18T02:44:57.181Z,99.90
2023-02-18T02:47:37.792Z,99.90
2023-02-18T02:50:14.623Z,99.90
2023-02-18T02:52:46.131Z,99.90
2023-02-18T02:55:13.587Z,99.90
2023-02-18T02:57:47.786Z,99.90
2023-02-18T03:00:16.984Z,99.90
2023-02-18T03:03:17.698Z,99.90
2023-02-18T03:06:08.051Z,99.90
2023-02-18T03:08:50.257Z,99.90
2023-02-18T03:11:18.619Z,99.90
2023-02-18T03:14:05.714Z,99.90
2023-02-18T03:16:53.734Z,99.90
2023-02-18T03:19:42.542Z,99.90
2023-02-18T03:22:20.151Z,99.90
2023-02-18T03:24:48.669Z,99.90
2023-02-18T03:27:51.076Z,99.90
2023-02-18T03:30:37.104Z,99.90
2023-02-18T03:33:07.562Z,99.90
2023-02-18T03:35:37.098Z,99.90
2023-02-18T03:38:16.972Z,99.90
2023-02-18T03:40:43.963Z,99.90
2023-02-18T03:43:10.931Z,99.90
2023-02-18T03:45:37.793Z,99.90
2023-02-18T03:48:05.083Z,99.90
2023-02-18T03:50:32.049Z,99.90
2023-02-18T03:52:58.984Z,99.90
2023-02-18T03:55:26.038Z,99.90
2023-02-18T03:57:53.044Z,99.90
2023-02-18T04:00:20.421Z,99.90
2023-02-18T04:02:47.372Z,99.90
2023-02-18T04:05:14.383Z,99.90
2023-02-18T04:07:41.257Z,99.90
2023-02-18T04:10:08.656Z,99.90
2023-02-18T04:12:35.488Z,99.90
2023-02-18T04:15:02.394Z,99.90
2023-02-18T04:17:29.280Z,99.90
2023-02-18T04:19:56.108Z,99.90
2023-02-18T04:22:23.025Z,99.90
2023-02-18T04:24:49.885Z,99.90
2023-02-18T04:27:16.699Z,99.90
2023-02-18T04:29:43.949Z,99.90
2023-02-18T04:32:10.921Z,99.90
2023-02-18T04:34:38.421Z,99.90
2023-02-18T04:37:05.377Z,99.90
2023-02-18T04:39:32.361Z,99.90
2023-02-18T04:41:59.218Z,99.90
2023-02-18T04:44:26.065Z,99.90
2023-02-18T04:46:52.928Z,99.90
2023-02-18T04:49:19.727Z,99.90
2023-02-18T04:51:46.592Z,99.90
2023-02-18T04:54:13.520Z,99.90
2023-02-18T04:56:40.411Z,99.90
2023-02-18T04:59:07.261Z,99.90
2023-02-18T05:01:34.388Z,99.90
2023-02-18T05:04:01.366Z,99.90
2023-02-18T05:06:28.339Z,99.90
2023-02-18T05:08:55.187Z,99.90
2023-02-18T05:11:22.068Z,99.90
2023-02-18T05:13:48.907Z,99.90
2023-02-18T05:16:15.815Z,99.90
2023-02-18T05:18:42.849Z,99.90
2023-02-18T05:21:09.677Z,99.90
2023-02-18T05:23:36.533Z,99.90
2023-02-18T05:26:03.767Z,99.90
2023-02-18T05:28:30.758Z,99.90
2023-02-18T05:30:58.612Z,99.90
2023-02-18T05:33:26.066Z,99.90
2023-02-18T05:35:53.047Z,99.90
2023-02-18T05:38:20.211Z,99.90
2023-02-18T05:40:47.761Z,99.90
2023-02-18T05:43:14.666Z,99.90
2023-02-18T05:45:41.617Z,99.90
2023-02-18T05:48:08.462Z,99.90
2023-02-18T05:50:35.583Z,99.90
2023-02-18T05:53:02.421Z,99.90
2023-02-18T05:55:29.273Z,99.90
2023-02-18T05:57:56.116Z,99.90
2023-02-18T06:00:23.231Z,99.90
2023-02-18T06:02:50.116Z,99.90
2023-02-18T06:05:17.097Z,99.90
2023-02-18T06:07:43.996Z,99.90
2023-02-18T06:10:11.062Z,99.90
2023-02-18T06:12:37.980Z,99.90
2023-02-18T06:15:05.119Z,99.90
2023-02-18T06:17:32.019Z,99.90
2023-02-18T06:19:58.872Z,99.90
2023-02-18T06:22:25.696Z,99.90
2023-02-18T06:24:52.523Z,99.90
2023-02-18T06:27:19.437Z,99.90
2023-02-18T06:29:46.275Z,99.90
2023-02-18T06:32:13.219Z,99.90
2023-02-18T06:34:40.129Z,99.90
2023-02-18T06:37:06.964Z,99.90
2023-02-18T06:39:33.767Z,99.90
2023-02-18T06:42:00.736Z,99.90
2023-02-18T06:44:27.581Z,99.90
2023-02-18T06:46:54.423Z,99.90
2023-02-18T06:49:21.300Z,99.90
2023-02-18T06:51:48.118Z,99.90
2023-02-18T06:54:14.966Z,99.90
2023-02-18T06:56:41.915Z,99.90
2023-02-18T06:59:08.817Z,99.90
2023-02-18T07:01:35.636Z,99.90
2023-02-18T07:04:02.579Z,99.90
2023-02-18T07:06:29.542Z,99.90
2023-02-18T07:08:56.519Z,99.90
2023-02-18T07:11:23.376Z,99.90
2023-02-18T07:13:51.587Z,99.90
2023-02-18T07:16:18.460Z,99.90
2023-02-18T07:18:46.788Z,99.90
2023-02-18T07:21:13.639Z,99.90
2023-02-18T07:23:40.566Z,99.90
2023-02-18T07:26:10.350Z,99.90
2023-02-18T07:28:37.934Z,99.90
2023-02-18T07:31:05.053Z,99.90
2023-02-18T07:33:32.253Z,99.90
2023-02-18T07:36:01.848Z,99.90
2023-02-18T07:38:29.455Z,99.90
2023-02-18T07:40:57.897Z,99.90
2023-02-18T07:43:25.072Z,99.90
2023-02-18T07:45:52.065Z,99.90
2023-02-18T07:48:18.975Z,99.90
2023-02-18T07:50:46.724Z,99.90
2023-02-18T07:53:16.395Z,99.90
2023-02-18T07:55:49.152Z,99.90
2023-02-18T07:58:19.901Z,99.90
2023-02-18T08:00:47.956Z,99.90
2023-02-18T08:03:16.451Z,99.90
2023-02-18T08:05:44.071Z,99.90
2023-02-18T08:08:15.896Z,99.90
2023-02-18T08:10:43.607Z,99.90
2023-02-18T08:13:10.824Z,99.90
2023-02-18T08:15:37.778Z,99.90
2023-02-18T08:18:05.659Z,99.90
2023-02-18T08:20:36.154Z,99.90
2023-02-18T08:23:03.232Z,99.90
2023-02-18T08:25:30.418Z,99.90
2023-02-18T08:27:57.353Z,99.80
2023-02-18T08:30:24.467Z,99.90
2023-02-18T08:32:51.563Z,99.90
2023-02-18T08:35:18.774Z,99.90
2023-02-18T08:37:53.758Z,99.90
2023-02-18T08:40:21.795Z,99.90
2023-02-18T08:42:48.767Z,99.50
2023-02-18T08:45:15.704Z,99.90
2023-02-18T08:48:17.943Z,99.90
2023-02-18T08:50:29.385Z,99.90
2023-02-18T08:52:57.096Z,99.90
2023-02-18T08:55:25.119Z,99.80
2023-02-18T08:57:52.007Z,99.90
2023-02-18T09:00:20.499Z,99.70
2023-02-18T09:02:47.953Z,99.90
2023-02-18T09:05:15.889Z,99.90
2023-02-18T09:07:42.939Z,99.50
2023-02-18T09:10:10.674Z,99.50
2023-02-18T09:12:37.544Z,99.00
2023-02-18T09:15:05.430Z,98.40
2023-02-18T09:17:32.538Z,97.40
2023-02-18T09:19:59.620Z,96.90
2023-02-18T09:22:26.583Z,97.30
2023-02-18T09:24:53.629Z,97.70
2023-02-18T09:27:21.305Z,97.50
2023-02-18T09:29:50.871Z,98.20
2023-02-18T09:32:29.002Z,98.10
2023-02-18T09:35:01.747Z,97.70
2023-02-18T09:37:28.938Z,98.60
2023-02-18T09:39:55.849Z,98.80
2023-02-18T09:42:29.927Z,98.50
2023-02-18T09:45:01.368Z,98.40
2023-02-18T09:47:41.384Z,98.50
2023-02-18T09:50:17.971Z,98.70
2023-02-18T09:52:45.034Z,98.60
2023-02-18T09:55:25.218Z,98.50
2023-02-18T09:57:55.620Z,98.20
2023-02-18T10:00:29.346Z,98.80
2023-02-18T10:02:57.806Z,98.60
2023-02-18T10:05:27.997Z,98.40
2023-02-18T10:08:00.483Z,98.40
2023-02-18T10:10:33.241Z,98.60
2023-02-18T10:13:01.698Z,99.20
2023-02-18T10:15:31.642Z,99.60
2023-02-18T10:17:59.713Z,99.90
2023-02-18T10:20:30.377Z,99.70
2023-02-18T10:23:01.302Z,99.50
2023-02-18T10:25:29.572Z,99.70
2023-02-18T10:27:58.749Z,99.30
2023-02-18T10:30:35.870Z,98.70
2023-02-18T10:33:28.428Z,99.00
2023-02-18T10:36:18.872Z,98.90
2023-02-18T10:39:16.554Z,98.30
2023-02-18T10:42:02.687Z,97.20
2023-02-18T10:44:57.577Z,98.30
2023-02-18T10:47:33.221Z,98.40
2023-02-18T10:50:04.000Z,98.20
2023-02-18T10:52:37.335Z,98.90
2023-02-18T10:55:09.558Z,99.00
2023-02-18T10:57:47.262Z,98.40
2023-02-18T11:00:19.280Z,98.70
2023-02-18T11:02:47.688Z,97.70
2023-02-18T11:05:26.800Z,98.30
2023-02-18T11:07:56.881Z,97.70
2023-02-18T11:10:32.069Z,97.90
2023-02-18T11:13:05.601Z,97.50
2023-02-18T11:15:32.470Z,96.90
2023-02-18T11:18:30.224Z,96.90
2023-02-18T11:21:03.140Z,96.40
2023-02-18T11:23:30.481Z,97.00
2023-02-18T11:26:11.814Z,98.10
2023-02-18T11:28:49.410Z,97.70
2023-02-18T11:31:25.513Z,97.50
2023-02-18T11:34:03.189Z,97.60
2023-02-18T11:36:36.237Z,97.90
2023-02-18T11:39:27.818Z,97.60
2023-02-18T11:42:06.081Z,97.10
2023-02-18T11:44:43.293Z,97.30
2023-02-18T11:47:12.955Z,97.40
2023-02-18T11:49:44.907Z,97.30
2023-02-18T11:52:32.763Z,97.50
2023-02-18T11:55:04.627Z,97.50
2023-02-18T11:57:35.268Z,97.40
2023-02-18T12:00:03.615Z,97.70
2023-02-18T12:02:38.194Z,98.10
2023-02-18T12:05:27.609Z,99.20
2023-02-18T12:08:07.724Z,98.90
2023-02-18T12:10:40.791Z,99.00
2023-02-18T12:13:17.733Z,98.70
2023-02-18T12:16:09.668Z,98.60
2023-02-18T12:19:02.918Z,99.00
2023-02-18T12:22:01.287Z,99.10
2023-02-18T12:24:34.021Z,99.10
2023-02-18T12:27:25.978Z,99.40
2023-02-18T12:30:11.653Z,98.80
2023-02-18T12:32:59.275Z,99.90
2023-02-18T12:35:47.127Z,99.90
2023-02-18T12:38:32.868Z,99.00
2023-02-18T12:41:06.404Z,98.70
2023-02-18T12:43:53.058Z,99.10
2023-02-18T12:46:19.859Z,99.10
2023-02-18T12:49:17.224Z,99.30
2023-02-18T12:51:46.996Z,98.70
2023-02-18T12:54:27.848Z,98.90
2023-02-18T12:57:28.026Z,99.00
2023-02-18T13:00:03.961Z,99.10
2023-02-18T13:03:08.216Z,98.70
2023-02-18T13:05:53.426Z,98.80
2023-02-18T13:08:50.902Z,99.20
2023-02-18T13:11:30.544Z,99.40
2023-02-18T13:14:09.195Z,98.90
2023-02-18T13:16:39.065Z,98.60
2023-02-18T13:19:11.963Z,98.90
2023-02-18T13:21:40.680Z,99.30
2023-02-18T13:24:12.948Z,98.90
2023-02-18T13:26:41.863Z,98.90
2023-02-18T13:29:36.907Z,99.00
2023-02-18T13:32:12.705Z,98.90
2023-02-18T13:34:48.762Z,98.70
2023-02-18T13:37:15.533Z,98.50
2023-02-18T13:39:53.388Z,99.20
2023-02-18T13:42:32.413Z,98.80
2023-02-18T13:44:59.800Z,98.90
2023-02-18T13:47:45.301Z,98.70
2023-02-18T13:50:26.863Z,99.10
2023-02-18T13:53:08.794Z,98.70
2023-02-18T13:56:07.541Z,98.60
2023-02-18T13:58:50.705Z,98.40
2023-02-18T14:01:25.150Z,99.00
2023-02-18T14:03:57.237Z,99.30
2023-02-18T14:06:38.048Z,99.00
2023-02-18T14:09:25.694Z,99.80
2023-02-18T14:11:58.010Z,98.80
2023-02-18T14:14:27.606Z,99.00
2023-02-18T14:17:19.600Z,99.10
2023-02-18T14:20:01.347Z,98.60
2023-02-18T14:22:47.671Z,99.10
2023-02-18T14:25:14.515Z,99.80
2023-02-18T14:27:42.736Z,99.90
2023-02-18T14:30:21.779Z,99.30
2023-02-18T14:32:52.272Z,99.90
2023-02-18T14:35:47.269Z,99.90
2023-02-18T14:38:42.844Z,99.30
2023-02-18T14:41:37.115Z,99.60
2023-02-18T14:44:17.847Z,99.70
2023-02-18T14:47:02.751Z,99.90
2023-02-18T14:49:39.936Z,99.80
2023-02-18T14:52:34.127Z,99.40
2023-02-18T14:55:02.944Z,99.60
2023-02-18T14:57:44.625Z,99.60
2023-02-18T15:00:21.304Z,99.70
2023-02-18T15:02:54.260Z,99.60
2023-02-18T15:05:24.078Z,99.10
2023-02-18T15:07:58.806Z,99.90
2023-02-18T15:10:38.051Z,99.40
2023-02-18T15:13:08.606Z,99.30
2023-02-18T15:15:38.656Z,99.90
2023-02-18T15:18:05.939Z,99.50
2023-02-18T15:20:34.977Z,98.70
2023-02-18T15:23:01.984Z,98.60
2023-02-18T15:25:29.420Z,98.30
2023-02-18T15:27:56.335Z,98.50
2023-02-18T15:30:31.224Z,97.70
2023-02-18T15:33:00.332Z,97.00
2023-02-18T15:35:31.409Z,97.30
2023-02-18T15:38:00.175Z,97.00
2023-02-18T15:40:33.042Z,97.10
2023-02-18T15:43:02.141Z,97.40
2023-02-18T15:45:35.563Z,97.20
2023-02-18T15:48:03.413Z,96.60
2023-02-18T15:50:45.138Z,97.10
2023-02-18T15:53:18.590Z,96.90
2023-02-18T15:55:50.561Z,96.50
2023-02-18T15:58:19.242Z,96.70
2023-02-18T16:00:55.256Z,95.70
2023-02-18T16:03:32.848Z,97.10
2023-02-18T16:06:28.905Z,96.30
2023-02-18T16:09:32.638Z,96.00
2023-02-18T16:12:03.210Z,96.20
2023-02-18T16:14:34.097Z,96.10
2023-02-18T16:17:12.864Z,96.00
2023-02-18T16:20:04.511Z,96.70
2023-02-18T16:22:32.334Z,96.60
2023-02-18T16:25:06.937Z,96.80
2023-02-18T16:27:36.943Z,96.30
2023-02-18T16:30:26.055Z,96.30
2023-02-18T16:32:54.315Z,96.40
2023-02-18T16:35:22.884Z,96.20
2023-02-18T16:37:52.824Z,96.60
2023-02-18T16:40:31.465Z,96.30
2023-02-18T16:43:01.675Z,96.60
2023-02-18T16:45:34.913Z,95.70
2023-02-18T16:48:02.775Z,96.10
2023-02-18T16:50:31.726Z,95.80
2023-02-18T16:52:58.713Z,95.90
2023-02-18T16:55:28.749Z,95.30
2023-02-18T16:57:55.792Z,95.70
2023-02-18T17:00:24.079Z,96.00
2023-02-18T17:02:54.433Z,96.00
2023-02-18T17:05:27.310Z,96.10
2023-02-18T17:07:55.813Z,96.00
2023-02-18T17:10:22.898Z,96.00
2023-02-18T17:12:49.788Z,96.40
2023-02-18T17:15:28.692Z,95.20
2023-02-18T17:17:56.527Z,95.70
2023-02-18T17:20:23.524Z,96.30
2023-02-18T17:22:50.401Z,96.80
2023-02-18T17:25:40.032Z,96.90
2023-02-18T17:28:07.347Z,96.90
2023-02-18T17:30:39.311Z,97.20
2023-02-18T17:33:07.790Z,97.20
2023-02-18T17:35:34.599Z,97.10
2023-02-18T17:38:01.605Z,97.60
2023-02-18T17:40:29.368Z,97.90
2023-02-18T17:42:56.389Z,98.00
2023-02-18T17:45:33.093Z,98.30
2023-02-18T17:48:01.403Z,98.60
2023-02-18T17:50:29.647Z,98.70
2023-02-18T17:52:56.694Z,98.90
2023-02-18T17:55:26.914Z,98.70
2023-02-18T17:57:54.224Z,98.00
2023-02-18T18:00:30.627Z,98.10
2023-02-18T18:02:57.549Z,97.60
2023-02-18T18:05:31.640Z,97.60
2023-02-18T18:07:59.736Z,97.80
2023-02-18T18:10:30.690Z,97.10
2023-02-18T18:12:59.190Z,97.30
2023-02-18T18:15:40.714Z,97.10
2023-02-18T18:18:08.029Z,96.70
2023-02-18T18:20:35.739Z,96.60
2023-02-18T18:23:05.016Z,96.50
2023-02-18T18:25:39.098Z,96.40
2023-02-18T18:28:08.283Z,96.00
2023-02-18T18:30:38.333Z,96.20
2023-02-18T18:33:16.714Z,95.90
2023-02-18T18:35:49.907Z,96.10
2023-02-18T18:38:18.099Z,95.60
2023-02-18T18:40:46.548Z,94.80
2023-02-18T18:43:20.142Z,95.50
2023-02-18T18:45:47.918Z,95.40
2023-02-18T18:48:15.195Z,96.20
2023-02-18T18:50:42.763Z,95.70
2023-02-18T18:53:27.458Z,95.50
2023-02-18T18:55:57.688Z,95.50
2023-02-18T18:58:25.086Z,95.10
2023-02-18T19:00:57.721Z,94.70
2023-02-18T19:03:26.694Z,94.80
2023-02-18T19:05:54.395Z,94.30
2023-02-18T19:08:21.946Z,94.60
2023-02-18T19:10:54.449Z,94.90
2023-02-18T19:13:32.315Z,94.90
2023-02-18T19:16:13.945Z,94.70
2023-02-18T19:18:40.919Z,95.00
2023-02-18T19:21:08.123Z,95.20
2023-02-18T19:23:36.372Z,94.80
2023-02-18T19:26:03.951Z,95.10
2023-02-18T19:28:31.056Z,95.00
2023-02-18T19:30:58.040Z,95.30
2023-02-18T19:33:25.062Z,95.10
2023-02-18T19:35:51.921Z,95.10
2023-02-18T19:38:19.497Z,95.10
2023-02-18T19:40:47.089Z,95.00
2023-02-18T19:43:14.112Z,95.60
2023-02-18T19:45:46.061Z,95.40
2023-02-18T19:48:14.321Z,96.10
2023-02-18T19:50:42.862Z,96.70
2023-02-18T19:53:10.012Z,97.70
2023-02-18T19:55:37.037Z,98.00
2023-02-18T19:58:04.068Z,98.20
2023-02-18T20:00:31.164Z,97.90
2023-02-18T20:02:58.242Z,97.40
2023-02-18T20:05:25.339Z,96.90
2023-02-18T20:07:52.223Z,97.20
2023-02-18T20:10:20.671Z,97.20
2023-02-18T20:12:54.704Z,97.00
2023-02-18T20:15:22.268Z,97.00
2023-02-18T20:17:49.625Z,96.90
2023-02-18T20:20:16.726Z,97.10
2023-02-18T20:22:43.552Z,97.60
2023-02-18T20:25:10.721Z,97.80
2023-02-18T20:27:45.183Z,97.80
2023-02-18T20:30:18.069Z,97.70
2023-02-18T20:32:44.921Z,97.50
2023-02-18T20:35:12.059Z,96.90
2023-02-18T20:37:39.304Z,97.30
2023-02-18T20:40:06.542Z,97.80
2023-02-18T20:42:33.411Z,97.50
2023-02-18T20:45:00.556Z,97.70
2023-02-18T20:47:27.406Z,97.30
2023-02-18T20:49:54.254Z,97.00
2023-02-18T20:52:21.092Z,97.10
2023-02-18T20:54:48.389Z,97.50
2023-02-18T20:57:15.237Z,97.40
2023-02-18T20:59:42.104Z,97.80
2023-02-18T21:02:10.933Z,97.90
2023-02-18T21:04:37.788Z,98.40
2023-02-18T21:07:04.755Z,98.10
2023-02-18T21:09:31.674Z,98.60
2023-02-18T21:11:58.627Z,98.90
2023-02-18T21:14:25.481Z,98.90
2023-02-18T21:16:52.325Z,98.70
2023-02-18T21:19:19.367Z,98.60
2023-02-18T21:21:47.447Z,98.40
2023-02-18T21:24:14.401Z,98.20
2023-02-18T21:26:42.727Z,97.40
2023-02-18T21:29:09.976Z,96.60
2023-02-18T21:31:42.513Z,96.80
2023-02-18T21:34:13.125Z,96.60
2023-02-18T21:36:40.317Z,96.70
2023-02-18T21:39:09.372Z,97.10
2023-02-18T21:41:39.823Z,96.80
2023-02-18T21:44:07.211Z,96.40
2023-02-18T21:46:36.313Z,96.20
2023-02-18T21:49:10.878Z,95.90
2023-02-18T21:51:57.167Z,95.00
2023-02-18T21:54:30.550Z,95.50
2023-02-18T21:56:59.069Z,94.90
2023-02-18T21:59:27.945Z,94.30
2023-02-18T22:01:55.380Z,92.60
2023-02-18T22:04:23.392Z,92.80
2023-02-18T22:06:50.173Z,93.20
2023-02-18T22:09:17.058Z,93.10
2023-02-18T22:11:44.400Z,92.70
2023-02-18T22:14:12.783Z,91.90
2023-02-18T22:16:40.363Z,91.80
2023-02-18T22:19:08.386Z,92.40
2023-02-18T22:21:35.433Z,92.70
2023-02-18T22:24:03.806Z,93.20
2023-02-18T22:26:30.642Z,93.40
2023-02-18T22:28:59.111Z,94.10
2023-02-18T22:31:28.265Z,93.40
2023-02-18T22:33:56.601Z,93.30
2023-02-18T22:36:25.627Z,93.70
2023-02-18T22:38:53.388Z,93.80
2023-02-18T22:41:22.304Z,93.60
2023-02-18T22:43:52.914Z,94.00
2023-02-18T22:46:19.729Z,93.90
2023-02-18T22:48:46.517Z,94.20
2023-02-18T22:51:14.750Z,94.10
2023-02-18T22:53:43.115Z,94.30
2023-02-18T22:56:15.619Z,93.70
2023-02-18T22:58:43.238Z,94.00
2023-02-18T23:01:18.890Z,93.50
2023-02-18T23:03:45.787Z,91.50
2023-02-18T23:06:12.588Z,91.60
2023-02-18T23:08:39.489Z,90.90
2023-02-18T23:11:12.435Z,90.00
2023-02-18T23:13:39.499Z,90.50
2023-02-18T23:16:14.799Z,90.50
2023-02-18T23:18:42.121Z,90.80
2023-02-18T23:21:23.034Z,92.40
2023-02-18T23:23:54.969Z,93.20
2023-02-18T23:26:25.564Z,93.60
2023-02-18T23:28:53.116Z,93.80
2023-02-18T23:31:28.266Z,92.00
2023-02-18T23:34:00.376Z,91.30
2023-02-18T23:36:29.484Z,90.70
2023-02-18T23:39:01.841Z,90.50
2023-02-18T23:41:30.030Z,90.70
2023-02-18T23:43:57.473Z,90.10
2023-02-18T23:46:26.693Z,89.40
2023-02-18T23:48:53.822Z,90.30
2023-02-18T23:51:22.451Z,89.70
2023-02-18T23:53:49.563Z,89.90
2023-02-18T23:56:22.449Z,89.40
2023-02-18T23:58:54.932Z,90.30
